createdAt,value
2018-06-13T00:00:01.144Z,1008.98
2018-06-13T00:01:09.793Z,1008.98
2018-06-13T00:02:18.434Z,1008.97
2018-06-13T00:03:27.077Z,1009.02
2018-06-13T00:04:35.992Z,1009
2018-06-13T00:05:44.633Z,1009.02
2018-06-13T00:06:53.279Z,1008.98
2018-06-13T00:08:01.922Z,1008.97
2018-06-13T00:09:10.835Z,1009.01
2018-06-13T00:10:19.477Z,1009.04
2018-06-13T00:11:28.126Z,1009
2018-06-13T00:12:36.774Z,1008.97
2018-06-13T00:13:45.420Z,1008.95
2018-06-13T00:14:54.323Z,1008.98
2018-06-13T00:16:02.968Z,1008.95
2018-06-13T00:17:11.882Z,1008.97
2018-06-13T00:18:20.522Z,1008.99
2018-06-13T00:19:29.168Z,1009.02
2018-06-13T00:20:37.812Z,1009.02
2018-06-13T00:21:46.462Z,1009
2018-06-13T00:22:55.102Z,1009.03
2018-06-13T00:24:03.750Z,1009.01
2018-06-13T00:25:12.914Z,1009.06
2018-06-13T00:26:21.568Z,1009.07
2018-06-13T00:27:30.479Z,1009.07
2018-06-13T00:28:39.120Z,1009.09
2018-06-13T00:29:47.762Z,1009.11
2018-06-13T00:30:56.408Z,1009.1
2018-06-13T00:32:05.065Z,1009.11
2018-06-13T00:33:13.766Z,1009.07
2018-06-13T00:34:22.621Z,1009.13
2018-06-13T00:35:31.258Z,1009.08
2018-06-13T00:36:39.968Z,1009.08
2018-06-13T00:37:48.839Z,1009.06
2018-06-13T00:38:57.489Z,1009.11
2018-06-13T00:40:06.128Z,1009.08
2018-06-13T00:41:14.782Z,1009.08
2018-06-13T00:42:23.423Z,1009.14
2018-06-13T00:43:32.861Z,1009.09
2018-06-13T00:44:41.500Z,1009.13
2018-06-13T00:45:50.407Z,1009.12
2018-06-13T00:46:59.056Z,1009.13
2018-06-13T00:48:07.703Z,1009.16
2018-06-13T00:49:16.352Z,1009.12
2018-06-13T00:50:25.250Z,1009.13
2018-06-13T00:51:33.900Z,1009.13
2018-06-13T00:52:42.543Z,1009.12
2018-06-13T00:53:51.198Z,1009.15
2018-06-13T00:54:59.834Z,1009.14
2018-06-13T00:56:08.489Z,1009.1
2018-06-13T00:57:17.130Z,1009.14
2018-06-13T00:58:25.784Z,1009.11
2018-06-13T00:59:34.420Z,1009.09
2018-06-13T01:00:43.328Z,1009.12
2018-06-13T01:01:51.973Z,1009.13
2018-06-13T01:03:00.631Z,1009.11
2018-06-13T01:04:09.276Z,1009.13
2018-06-13T01:05:17.913Z,1009.16
2018-06-13T01:06:26.821Z,1009.11
2018-06-13T01:07:35.464Z,1009.17
2018-06-13T01:08:44.386Z,1009.14
2018-06-13T01:09:53.030Z,1009.14
2018-06-13T01:11:01.677Z,1009.11
2018-06-13T01:12:10.311Z,1009.11
2018-06-13T01:13:18.965Z,1009.12
2018-06-13T01:14:27.605Z,1009.11
2018-06-13T01:15:36.257Z,1009.1
2018-06-13T01:16:45.174Z,1009.13
2018-06-13T01:17:54.359Z,1009.12
2018-06-13T01:19:03.001Z,1009.12
2018-06-13T01:20:11.912Z,1009.11
2018-06-13T01:21:20.549Z,1009.18
2018-06-13T01:22:29.194Z,1009.16
2018-06-13T01:23:37.845Z,1009.18
2018-06-13T01:24:46.488Z,1009.18
2018-06-13T01:25:55.396Z,1009.18
2018-06-13T01:27:04.035Z,1009.19
2018-06-13T01:28:12.680Z,1009.13
2018-06-13T01:29:21.403Z,1009.16
2018-06-13T01:30:29.979Z,1009.18
2018-06-13T01:31:38.619Z,1009.17
2018-06-13T01:32:47.271Z,1009.15
2018-06-13T01:33:55.917Z,1009.16
2018-06-13T01:35:04.569Z,1009.16
2018-06-13T01:36:13.209Z,1009.15
2018-06-13T01:37:21.857Z,1009.15
2018-06-13T01:38:30.502Z,1009.15
2018-06-13T01:39:39.153Z,1009.18
2018-06-13T01:40:47.795Z,1009.2
2018-06-13T01:41:56.439Z,1009.17
2018-06-13T01:43:05.083Z,1009.16
2018-06-13T01:44:13.724Z,1009.22
2018-06-13T01:45:22.373Z,1009.19
2018-06-13T01:46:31.019Z,1009.24
2018-06-13T01:47:39.667Z,1009.17
2018-06-13T01:48:48.305Z,1009.19
2018-06-13T01:49:56.959Z,1009.22
2018-06-13T01:51:05.607Z,1009.22
2018-06-13T01:52:14.247Z,1009.21
2018-06-13T01:53:22.887Z,1009.24
2018-06-13T01:54:31.535Z,1009.2
2018-06-13T01:55:40.180Z,1009.21
2018-06-13T01:56:48.825Z,1009.19
2018-06-13T01:57:57.466Z,1009.21
2018-06-13T01:59:06.120Z,1009.18
2018-06-13T02:00:14.758Z,1009.21
2018-06-13T02:01:23.406Z,1009.18
2018-06-13T02:02:32.053Z,1009.2
2018-06-13T02:03:40.692Z,1009.19
2018-06-13T02:04:49.336Z,1009.19
2018-06-13T02:05:57.984Z,1009.21
2018-06-13T02:07:06.900Z,1009.22
2018-06-13T02:08:15.541Z,1009.26
2018-06-13T02:09:24.451Z,1009.21
2018-06-13T02:10:33.095Z,1009.21
2018-06-13T02:11:41.741Z,1009.17
2018-06-13T02:12:50.383Z,1009.2
2018-06-13T02:13:59.029Z,1009.2
2018-06-13T02:15:07.672Z,1009.22
2018-06-13T02:16:16.585Z,1009.24
2018-06-13T02:17:25.229Z,1009.25
2018-06-13T02:18:33.877Z,1009.23
2018-06-13T02:19:42.782Z,1009.24
2018-06-13T02:20:51.686Z,1009.21
2018-06-13T02:22:00.337Z,1009.22
2018-06-13T02:23:08.976Z,1009.18
2018-06-13T02:24:17.621Z,1009.2
2018-06-13T02:25:26.273Z,1009.2
2018-06-13T02:26:34.916Z,1009.18
2018-06-13T02:27:43.561Z,1009.24
2018-06-13T02:28:52.205Z,1009.2
2018-06-13T02:30:00.856Z,1009.24
2018-06-13T02:31:09.762Z,1009.21
2018-06-13T02:32:18.411Z,1009.27
2018-06-13T02:33:27.056Z,1009.2
2018-06-13T02:34:35.709Z,1009.26
2018-06-13T02:35:44.652Z,1009.24
2018-06-13T02:36:53.263Z,1009.27
2018-06-13T02:38:01.906Z,1009.3
2018-06-13T02:39:10.549Z,1009.33
2018-06-13T02:40:19.469Z,1009.31
2018-06-13T02:41:28.114Z,1009.31
2018-06-13T02:42:36.762Z,1009.32
2018-06-13T02:43:45.405Z,1009.3
2018-06-13T02:44:54.064Z,1009.28
2018-06-13T02:46:02.709Z,1009.3
2018-06-13T02:47:11.882Z,1009.25
2018-06-13T02:48:20.523Z,1009.24
2018-06-13T02:49:29.177Z,1009.23
2018-06-13T02:50:38.088Z,1009.21
2018-06-13T02:51:47.267Z,1009.21
2018-06-13T02:52:55.902Z,1009.21
2018-06-13T02:54:05.079Z,1009.22
2018-06-13T02:55:13.739Z,1009.18
2018-06-13T02:56:22.392Z,1009.18
2018-06-13T02:57:31.049Z,1009.18
2018-06-13T02:58:40.236Z,1009.19
2018-06-13T02:59:49.149Z,1009.18
2018-06-13T03:00:58.197Z,1009.18
2018-06-13T03:02:07.133Z,1009.19
2018-06-13T03:03:15.921Z,1009.19
2018-06-13T03:04:24.829Z,1009.19
2018-06-13T03:05:33.475Z,1009.23
2018-06-13T03:06:42.386Z,1009.24
2018-06-13T03:07:51.293Z,1009.25
2018-06-13T03:08:59.944Z,1009.21
2018-06-13T03:10:08.854Z,1009.21
2018-06-13T03:11:17.503Z,1009.22
2018-06-13T03:12:26.153Z,1009.26
2018-06-13T03:13:35.065Z,1009.26
2018-06-13T03:14:43.717Z,1009.27
2018-06-13T03:15:52.357Z,1009.3
2018-06-13T03:17:01.013Z,1009.28
2018-06-13T03:18:09.658Z,1009.25
2018-06-13T03:19:18.303Z,1009.26
2018-06-13T03:20:26.948Z,1009.27
2018-06-13T03:21:35.596Z,1009.29
2018-06-13T03:22:44.236Z,1009.29
2018-06-13T03:23:52.888Z,1009.34
2018-06-13T03:25:01.524Z,1009.3
2018-06-13T03:26:10.176Z,1009.32
2018-06-13T03:27:18.823Z,1009.34
2018-06-13T03:28:27.472Z,1009.37
2018-06-13T03:29:36.112Z,1009.34
2018-06-13T03:30:44.758Z,1009.31
2018-06-13T03:31:53.957Z,1009.37
2018-06-13T03:33:02.888Z,1009.37
2018-06-13T03:34:11.539Z,1009.34
2018-06-13T03:35:20.185Z,1009.35
2018-06-13T03:36:28.835Z,1009.35
2018-06-13T03:37:37.475Z,1009.34
2018-06-13T03:38:46.130Z,1009.32
2018-06-13T03:39:54.765Z,1009.32
2018-06-13T03:41:03.468Z,1009.32
2018-06-13T03:42:12.055Z,1009.34
2018-06-13T03:43:20.706Z,1009.31
2018-06-13T03:44:29.342Z,1009.28
2018-06-13T03:45:37.987Z,1009.32
2018-06-13T03:46:46.630Z,1009.33
2018-06-13T03:47:55.547Z,1009.34
2018-06-13T03:49:04.453Z,1009.33
2018-06-13T03:50:13.093Z,1009.37
2018-06-13T03:51:22.008Z,1009.39
2018-06-13T03:52:30.648Z,1009.39
2018-06-13T03:53:39.307Z,1009.42
2018-06-13T03:54:48.237Z,1009.4
2018-06-13T03:55:57.151Z,1009.39
2018-06-13T03:57:06.049Z,1009.39
2018-06-13T03:58:14.700Z,1009.4
2018-06-13T03:59:23.602Z,1009.41
2018-06-13T04:00:32.249Z,1009.42
2018-06-13T04:01:41.195Z,1009.42
2018-06-13T04:02:49.804Z,1009.4
2018-06-13T04:03:58.442Z,1009.46
2018-06-13T04:05:07.091Z,1009.47
2018-06-13T04:06:15.726Z,1009.49
2018-06-13T04:07:24.373Z,1009.48
2018-06-13T04:08:33.023Z,1009.48
2018-06-13T04:09:41.675Z,1009.54
2018-06-13T04:10:50.322Z,1009.5
2018-06-13T04:11:58.955Z,1009.52
2018-06-13T04:13:07.604Z,1009.5
2018-06-13T04:14:16.513Z,1009.53
2018-06-13T04:15:25.166Z,1009.52
2018-06-13T04:16:33.801Z,1009.55
2018-06-13T04:17:42.451Z,1009.53
2018-06-13T04:18:51.359Z,1009.5
2018-06-13T04:20:00.025Z,1009.49
2018-06-13T04:21:08.938Z,1009.51
2018-06-13T04:22:17.586Z,1009.47
2018-06-13T04:23:26.229Z,1009.5
2018-06-13T04:24:34.882Z,1009.51
2018-06-13T04:25:43.524Z,1009.52
2018-06-13T04:26:52.164Z,1009.49
2018-06-13T04:28:00.807Z,1009.51
2018-06-13T04:29:09.454Z,1009.54
2018-06-13T04:30:18.376Z,1009.56
2018-06-13T04:31:27.017Z,1009.57
2018-06-13T04:32:35.689Z,1009.54
2018-06-13T04:33:44.595Z,1009.54
2018-06-13T04:34:53.248Z,1009.55
2018-06-13T04:36:01.892Z,1009.52
2018-06-13T04:37:10.806Z,1009.51
2018-06-13T04:38:19.705Z,1009.47
2018-06-13T04:39:28.357Z,1009.5
2018-06-13T04:40:37.264Z,1009.51
2018-06-13T04:41:45.912Z,1009.5
2018-06-13T04:42:54.546Z,1009.49
2018-06-13T04:44:03.458Z,1009.49
2018-06-13T04:45:12.109Z,1009.48
2018-06-13T04:46:20.756Z,1009.45
2018-06-13T04:47:29.403Z,1009.43
2018-06-13T04:48:38.039Z,1009.44
2018-06-13T04:49:46.688Z,1009.42
2018-06-13T04:50:55.333Z,1009.42
2018-06-13T04:52:03.983Z,1009.44
2018-06-13T04:53:12.619Z,1009.43
2018-06-13T04:54:21.554Z,1009.39
2018-06-13T04:55:30.449Z,1009.41
2018-06-13T04:56:39.106Z,1009.39
2018-06-13T04:57:47.747Z,1009.4
2018-06-13T04:58:56.395Z,1009.37
2018-06-13T05:00:05.039Z,1009.36
2018-06-13T05:01:13.691Z,1009.4
2018-06-13T05:02:22.333Z,1009.35
2018-06-13T05:03:30.973Z,1009.39
2018-06-13T05:04:39.877Z,1009.37
2018-06-13T05:05:49.051Z,1009.37
2018-06-13T05:06:57.706Z,1009.42
2018-06-13T05:08:06.349Z,1009.43
2018-06-13T05:09:14.997Z,1009.42
2018-06-13T05:10:23.633Z,1009.42
2018-06-13T05:11:32.281Z,1009.4
2018-06-13T05:12:40.918Z,1009.41
2018-06-13T05:13:49.831Z,1009.42
2018-06-13T05:14:58.466Z,1009.45
2018-06-13T05:16:07.123Z,1009.41
2018-06-13T05:17:15.762Z,1009.43
2018-06-13T05:18:24.409Z,1009.46
2018-06-13T05:19:33.054Z,1009.51
2018-06-13T05:20:41.700Z,1009.54
2018-06-13T05:21:50.344Z,1009.5
2018-06-13T05:22:58.991Z,1009.54
2018-06-13T05:24:07.638Z,1009.54
2018-06-13T05:25:16.281Z,1009.57
2018-06-13T05:26:24.924Z,1009.56
2018-06-13T05:27:33.570Z,1009.55
2018-06-13T05:28:42.307Z,1009.58
2018-06-13T05:29:51.134Z,1009.57
2018-06-13T05:30:59.776Z,1009.55
2018-06-13T05:32:08.424Z,1009.54
2018-06-13T05:33:17.074Z,1009.52
2018-06-13T05:34:25.719Z,1009.53
2018-06-13T05:35:34.364Z,1009.54
2018-06-13T05:36:43.008Z,1009.57
2018-06-13T05:37:51.659Z,1009.51
2018-06-13T05:39:00.300Z,1009.57
2018-06-13T05:40:08.948Z,1009.56
2018-06-13T05:41:17.857Z,1009.61
2018-06-13T05:42:26.500Z,1009.59
2018-06-13T05:43:35.150Z,1009.63
2018-06-13T05:44:43.797Z,1009.62
2018-06-13T05:45:52.705Z,1009.64
2018-06-13T05:47:01.614Z,1009.63
2018-06-13T05:48:10.264Z,1009.63
2018-06-13T05:49:18.912Z,1009.63
2018-06-13T05:50:27.556Z,1009.68
2018-06-13T05:51:36.198Z,1009.73
2018-06-13T05:52:44.848Z,1009.73
2018-06-13T05:53:53.491Z,1009.77
2018-06-13T05:55:02.158Z,1009.75
2018-06-13T05:56:11.055Z,1009.75
2018-06-13T05:57:19.701Z,1009.75
2018-06-13T05:58:28.377Z,1009.73
2018-06-13T05:59:37.025Z,1009.76
2018-06-13T06:00:45.942Z,1009.73
2018-06-13T06:01:54.583Z,1009.78
2018-06-13T06:03:03.228Z,1009.8
2018-06-13T06:04:11.874Z,1009.79
2018-06-13T06:05:20.525Z,1009.81
2018-06-13T06:06:29.164Z,1009.76
2018-06-13T06:07:38.073Z,1009.74
2018-06-13T06:08:46.716Z,1009.79
2018-06-13T06:09:55.366Z,1009.88
2018-06-13T06:11:04.006Z,1009.88
2018-06-13T06:12:12.652Z,1009.89
2018-06-13T06:13:21.300Z,1009.91
2018-06-13T06:14:29.946Z,1009.95
2018-06-13T06:15:38.591Z,1009.92
2018-06-13T06:16:47.236Z,1009.95
2018-06-13T06:17:55.882Z,1009.95
2018-06-13T06:19:04.805Z,1009.94
2018-06-13T06:20:13.443Z,1009.94
2018-06-13T06:21:22.105Z,1009.97
2018-06-13T06:22:30.755Z,1009.95
2018-06-13T06:23:39.500Z,1009.89
2018-06-13T06:24:48.314Z,1009.88
2018-06-13T06:25:56.959Z,1009.86
2018-06-13T06:27:05.865Z,1009.87
2018-06-13T06:28:14.515Z,1009.88
2018-06-13T06:29:23.158Z,1009.93
2018-06-13T06:30:31.809Z,1009.91
2018-06-13T06:31:40.748Z,1009.97
2018-06-13T06:32:49.665Z,1009.96
2018-06-13T06:33:58.307Z,1009.97
2018-06-13T06:35:06.957Z,1009.96
2018-06-13T06:36:15.869Z,1009.99
2018-06-13T06:37:24.510Z,1009.99
2018-06-13T06:38:33.169Z,1010.02
2018-06-13T06:39:41.811Z,1010.06
2018-06-13T06:40:50.727Z,1010.03
2018-06-13T06:41:59.638Z,1010.05
2018-06-13T06:43:08.292Z,1010.02
2018-06-13T06:44:16.955Z,1010.04
2018-06-13T06:45:25.601Z,1010.02
2018-06-13T06:46:34.243Z,1010
2018-06-13T06:47:42.893Z,1010.06
2018-06-13T06:48:51.589Z,1010.08
2018-06-13T06:50:00.460Z,1010.08
2018-06-13T06:51:09.109Z,1010.07
2018-06-13T06:52:17.757Z,1010.09
2018-06-13T06:53:26.404Z,1010.07
2018-06-13T06:54:35.052Z,1010.09
2018-06-13T06:55:43.702Z,1010.09
2018-06-13T06:56:52.344Z,1010.11
2018-06-13T06:58:00.987Z,1010.08
2018-06-13T06:59:09.634Z,1010.09
2018-06-13T07:00:18.290Z,1010.08
2018-06-13T07:01:26.925Z,1010.11
2018-06-13T07:02:35.633Z,1010.11
2018-06-13T07:03:44.843Z,1010.1
2018-06-13T07:04:53.486Z,1010.03
2018-06-13T07:06:02.127Z,1010.08
2018-06-13T07:07:11.043Z,1010.05
2018-06-13T07:08:19.688Z,1010.04
2018-06-13T07:09:28.343Z,1010.06
2018-06-13T07:10:37.254Z,1010.03
2018-06-13T07:11:45.902Z,1010
2018-06-13T07:12:54.547Z,1010.05
2018-06-13T07:14:03.450Z,1010
2018-06-13T07:15:12.100Z,1010.06
2018-06-13T07:16:20.746Z,1010.07
2018-06-13T07:17:29.659Z,1010.07
2018-06-13T07:18:38.297Z,1010.1
2018-06-13T07:19:46.952Z,1010.11
2018-06-13T07:20:55.595Z,1010.09
2018-06-13T07:22:04.243Z,1010.17
2018-06-13T07:23:13.148Z,1010.19
2018-06-13T07:24:21.804Z,1010.18
2018-06-13T07:25:30.449Z,1010.19
2018-06-13T07:26:39.100Z,1010.21
2018-06-13T07:27:47.738Z,1010.18
2018-06-13T07:28:56.649Z,1010.11
2018-06-13T07:30:05.302Z,1010.17
2018-06-13T07:31:14.227Z,1010.15
2018-06-13T07:32:22.872Z,1010.15
2018-06-13T07:33:31.520Z,1010.16
2018-06-13T07:34:40.182Z,1010.17
2018-06-13T07:35:48.832Z,1010.16
2018-06-13T07:36:57.490Z,1010.14
2018-06-13T07:38:06.129Z,1010.15
2018-06-13T07:39:14.779Z,1010.19
2018-06-13T07:40:23.422Z,1010.18
2018-06-13T07:41:32.400Z,1010.18
2018-06-13T07:42:40.982Z,1010.13
2018-06-13T07:43:49.633Z,1010.12
2018-06-13T07:44:58.277Z,1010.2
2018-06-13T07:46:07.206Z,1010.26
2018-06-13T07:47:15.852Z,1010.22
2018-06-13T07:48:24.502Z,1010.24
2018-06-13T07:49:33.146Z,1010.21
2018-06-13T07:50:41.789Z,1010.21
2018-06-13T07:51:50.445Z,1010.2
2018-06-13T07:52:59.089Z,1010.24
2018-06-13T07:54:07.741Z,1010.22
2018-06-13T07:55:16.392Z,1010.26
2018-06-13T07:56:25.054Z,1010.24
2018-06-13T07:57:33.957Z,1010.25
2018-06-13T07:58:42.611Z,1010.24
2018-06-13T07:59:51.246Z,1010.25
2018-06-13T08:00:59.902Z,1010.19
2018-06-13T08:02:08.549Z,1010.16
2018-06-13T08:03:17.510Z,1010.21
2018-06-13T08:04:26.148Z,1010.17
2018-06-13T08:05:35.067Z,1010.16
2018-06-13T08:06:43.717Z,1010.19
2018-06-13T08:07:52.633Z,1010.17
2018-06-13T08:09:01.556Z,1010.15
2018-06-13T08:10:10.195Z,1010.22
2018-06-13T08:11:18.846Z,1010.21
2018-06-13T08:12:27.490Z,1010.24
2018-06-13T08:13:36.414Z,1010.26
2018-06-13T08:14:45.058Z,1010.24
2018-06-13T08:15:53.708Z,1010.28
2018-06-13T08:17:02.357Z,1010.27
2018-06-13T08:18:11.006Z,1010.29
2018-06-13T08:19:19.658Z,1010.29
2018-06-13T08:20:28.299Z,1010.29
2018-06-13T08:21:36.944Z,1010.29
2018-06-13T08:22:45.596Z,1010.32
2018-06-13T08:23:54.241Z,1010.33
2018-06-13T08:25:02.896Z,1010.39
2018-06-13T08:26:11.858Z,1010.37
2018-06-13T08:27:20.483Z,1010.4
2018-06-13T08:28:29.130Z,1010.44
2018-06-13T08:29:37.779Z,1010.41
2018-06-13T08:30:46.481Z,1010.44
2018-06-13T08:31:55.267Z,1010.46
2018-06-13T08:33:03.919Z,1010.52
2018-06-13T08:34:12.567Z,1010.5
2018-06-13T08:35:21.485Z,1010.53
2018-06-13T08:36:30.134Z,1010.55
2018-06-13T08:37:38.787Z,1010.56
2018-06-13T08:38:47.429Z,1010.55
2018-06-13T08:39:56.183Z,1010.59
2018-06-13T08:41:04.747Z,1010.62
2018-06-13T08:42:13.460Z,1010.61
2018-06-13T08:43:22.383Z,1010.6
2018-06-13T08:44:31.033Z,1010.62
2018-06-13T08:45:39.716Z,1010.65
2018-06-13T08:46:48.702Z,1010.61
2018-06-13T08:47:57.753Z,1010.62
2018-06-13T08:49:06.704Z,1010.6
2018-06-13T08:50:15.354Z,1010.63
2018-06-13T08:51:23.999Z,1010.65
2018-06-13T08:52:32.926Z,1010.59
2018-06-13T08:53:41.569Z,1010.6
2018-06-13T08:54:50.217Z,1010.63
2018-06-13T08:55:58.867Z,1010.63
2018-06-13T08:57:07.524Z,1010.63
2018-06-13T08:58:16.283Z,1010.65
2018-06-13T08:59:25.089Z,1010.65
2018-06-13T09:00:33.736Z,1010.63
2018-06-13T09:01:42.380Z,1010.6
2018-06-13T09:02:51.289Z,1010.6
2018-06-13T09:03:59.964Z,1010.6
2018-06-13T09:05:09.041Z,1010.58
2018-06-13T09:06:17.811Z,1010.55
2018-06-13T09:07:26.655Z,1010.6
2018-06-13T09:08:35.554Z,1010.54
2018-06-13T09:09:44.318Z,1010.56
2018-06-13T09:10:53.035Z,1010.57
2018-06-13T09:12:01.736Z,1010.57
2018-06-13T09:13:10.966Z,1010.59
2018-06-13T09:14:19.622Z,1010.55
2018-06-13T09:15:28.269Z,1010.6
2018-06-13T09:16:36.921Z,1010.53
2018-06-13T09:17:45.560Z,1010.58
2018-06-13T09:18:54.211Z,1010.59
2018-06-13T09:20:02.863Z,1010.56
2018-06-13T09:21:11.513Z,1010.62
2018-06-13T09:22:20.168Z,1010.57
2018-06-13T09:23:29.459Z,1010.55
2018-06-13T09:24:38.110Z,1010.57
2018-06-13T09:25:46.754Z,1010.58
2018-06-13T09:26:55.409Z,1010.62
2018-06-13T09:28:04.309Z,1010.63
2018-06-13T09:29:12.962Z,1010.68
2018-06-13T09:30:21.607Z,1010.7
2018-06-13T09:31:30.268Z,1010.69
2018-06-13T09:32:39.460Z,1010.64
2018-06-13T09:33:48.108Z,1010.69
2018-06-13T09:34:57.013Z,1010.71
2018-06-13T09:36:05.942Z,1010.7
2018-06-13T09:37:14.584Z,1010.63
2018-06-13T09:38:23.222Z,1010.67
2018-06-13T09:39:31.866Z,1010.63
2018-06-13T09:40:40.513Z,1010.65
2018-06-13T09:41:49.169Z,1010.63
2018-06-13T09:42:57.815Z,1010.62
2018-06-13T09:44:06.477Z,1010.58
2018-06-13T09:45:15.107Z,1010.54
2018-06-13T09:46:23.767Z,1010.5
2018-06-13T09:47:32.411Z,1010.54
2018-06-13T09:48:41.064Z,1010.59
2018-06-13T09:49:49.703Z,1010.5
2018-06-13T09:50:58.359Z,1010.54
2018-06-13T09:52:07.007Z,1010.53
2018-06-13T09:53:15.925Z,1010.52
2018-06-13T09:54:24.571Z,1010.55
2018-06-13T09:55:33.213Z,1010.54
2018-06-13T09:56:41.888Z,1010.55
2018-06-13T09:57:50.526Z,1010.57
2018-06-13T09:58:59.179Z,1010.54
2018-06-13T10:00:07.815Z,1010.55
2018-06-13T10:01:16.469Z,1010.54
2018-06-13T10:02:25.113Z,1010.51
2018-06-13T10:03:33.772Z,1010.52
2018-06-13T10:04:42.470Z,1010.46
2018-06-13T10:05:51.802Z,1010.46
2018-06-13T10:07:00.446Z,1010.45
2018-06-13T10:08:09.102Z,1010.47
2018-06-13T10:09:17.741Z,1010.49
2018-06-13T10:10:26.391Z,1010.56
2018-06-13T10:11:35.044Z,1010.57
2018-06-13T10:12:43.684Z,1010.52
2018-06-13T10:13:52.343Z,1010.6
2018-06-13T10:15:01.255Z,1010.57
2018-06-13T10:16:09.906Z,1010.57
2018-06-13T10:17:18.562Z,1010.58
2018-06-13T10:18:27.198Z,1010.6
2018-06-13T10:19:35.852Z,1010.6
2018-06-13T10:20:44.498Z,1010.6
2018-06-13T10:21:53.686Z,1010.57
2018-06-13T10:23:02.327Z,1010.56
2018-06-13T10:24:10.983Z,1010.56
2018-06-13T10:25:19.639Z,1010.57
2018-06-13T10:26:29.474Z,1010.58
2018-06-13T10:27:38.117Z,1010.54
2018-06-13T10:28:47.030Z,1010.49
2018-06-13T10:29:55.675Z,1010.53
2018-06-13T10:31:04.332Z,1010.49
2018-06-13T10:32:12.982Z,1010.48
2018-06-13T10:33:21.892Z,1010.51
2018-06-13T10:34:30.549Z,1010.54
2018-06-13T10:35:39.190Z,1010.56
2018-06-13T10:36:47.847Z,1010.55
2018-06-13T10:37:56.490Z,1010.6
2018-06-13T10:39:05.144Z,1010.57
2018-06-13T10:40:13.783Z,1010.61
2018-06-13T10:41:22.441Z,1010.62
2018-06-13T10:42:31.350Z,1010.6
2018-06-13T10:43:40.003Z,1010.64
2018-06-13T10:44:48.645Z,1010.61
2018-06-13T10:45:57.567Z,1010.64
2018-06-13T10:47:06.212Z,1010.6
2018-06-13T10:48:14.863Z,1010.64
2018-06-13T10:49:23.502Z,1010.66
2018-06-13T10:50:32.154Z,1010.63
2018-06-13T10:51:40.812Z,1010.67
2018-06-13T10:52:49.463Z,1010.65
2018-06-13T10:53:58.122Z,1010.66
2018-06-13T10:55:07.024Z,1010.65
2018-06-13T10:56:15.679Z,1010.61
2018-06-13T10:57:24.323Z,1010.59
2018-06-13T10:58:32.980Z,1010.57
2018-06-13T10:59:41.618Z,1010.54
2018-06-13T11:00:50.544Z,1010.61
2018-06-13T11:01:59.190Z,1010.62
2018-06-13T11:03:07.852Z,1010.56
2018-06-13T11:04:16.489Z,1010.6
2018-06-13T11:05:25.418Z,1010.67
2018-06-13T11:06:34.331Z,1010.66
2018-06-13T11:07:42.994Z,1010.71
2018-06-13T11:08:51.641Z,1010.63
2018-06-13T11:10:00.285Z,1010.67
2018-06-13T11:11:09.206Z,1010.77
2018-06-13T11:12:18.121Z,1010.72
2018-06-13T11:13:26.776Z,1010.76
2018-06-13T11:14:35.426Z,1010.74
2018-06-13T11:15:44.076Z,1010.78
2018-06-13T11:16:52.717Z,1010.81
2018-06-13T11:18:01.373Z,1010.8
2018-06-13T11:19:10.018Z,1010.77
2018-06-13T11:20:18.682Z,1010.79
2018-06-13T11:21:27.310Z,1010.79
2018-06-13T11:22:36.226Z,1010.75
2018-06-13T11:23:44.874Z,1010.78
2018-06-13T11:24:53.525Z,1010.8
2018-06-13T11:26:02.442Z,1010.81
2018-06-13T11:27:11.352Z,1010.84
2018-06-13T11:28:20.000Z,1010.8
2018-06-13T11:29:28.651Z,1010.82
2018-06-13T11:30:37.306Z,1010.8
2018-06-13T11:31:46.215Z,1010.78
2018-06-13T11:32:54.865Z,1010.83
2018-06-13T11:34:03.774Z,1010.81
2018-06-13T11:35:12.690Z,1010.76
2018-06-13T11:36:21.335Z,1010.77
2018-06-13T11:37:29.985Z,1010.74
2018-06-13T11:38:38.632Z,1010.78
2018-06-13T11:39:47.286Z,1010.76
2018-06-13T11:40:55.929Z,1010.72
2018-06-13T11:42:04.580Z,1010.74
2018-06-13T11:43:13.228Z,1010.69
2018-06-13T11:44:21.883Z,1010.72
2018-06-13T11:45:31.054Z,1010.7
2018-06-13T11:46:39.704Z,1010.7
2018-06-13T11:47:48.618Z,1010.69
2018-06-13T11:48:57.265Z,1010.69
2018-06-13T11:50:06.186Z,1010.71
2018-06-13T11:51:14.832Z,1010.75
2018-06-13T11:52:23.491Z,1010.7
2018-06-13T11:53:32.441Z,1010.71
2018-06-13T11:54:41.058Z,1010.69
2018-06-13T11:55:49.709Z,1010.73
2018-06-13T11:56:58.360Z,1010.77
2018-06-13T11:58:07.005Z,1010.73
2018-06-13T11:59:15.657Z,1010.6
2018-06-13T12:00:24.354Z,1010.7
2018-06-13T12:01:32.956Z,1010.72
2018-06-13T12:02:41.603Z,1010.67
2018-06-13T12:03:50.253Z,1010.68
2018-06-13T12:04:58.906Z,1010.69
2018-06-13T12:06:07.839Z,1010.62
2018-06-13T12:07:16.811Z,1010.64
2018-06-13T12:08:25.456Z,1010.55
2018-06-13T12:09:34.104Z,1010.56
2018-06-13T12:10:42.768Z,1010.51
2018-06-13T12:11:51.684Z,1010.57
2018-06-13T12:13:00.346Z,1010.6
2018-06-13T12:14:09.256Z,1010.56
2018-06-13T12:15:17.911Z,1010.58
2018-06-13T12:16:26.553Z,1010.64
2018-06-13T12:17:35.216Z,1010.6
2018-06-13T12:18:43.862Z,1010.58
2018-06-13T12:19:52.515Z,1010.63
2018-06-13T12:21:01.156Z,1010.69
2018-06-13T12:22:09.804Z,1010.62
2018-06-13T12:23:18.459Z,1010.68
2018-06-13T12:24:27.109Z,1010.64
2018-06-13T12:25:35.762Z,1010.67
2018-06-13T12:26:44.402Z,1010.66
2018-06-13T12:27:53.323Z,1010.74
2018-06-13T12:29:01.967Z,1010.65
2018-06-13T12:30:10.628Z,1010.69
2018-06-13T12:31:19.791Z,1010.65
2018-06-13T12:32:28.445Z,1010.71
2018-06-13T12:33:37.091Z,1010.74
2018-06-13T12:34:46.009Z,1010.7
2018-06-13T12:35:54.650Z,1010.71
2018-06-13T12:37:03.303Z,1010.68
2018-06-13T12:38:11.950Z,1010.69
2018-06-13T12:39:20.611Z,1010.64
2018-06-13T12:40:29.257Z,1010.68
2018-06-13T12:41:37.905Z,1010.66
2018-06-13T12:42:46.556Z,1010.7
2018-06-13T12:43:55.205Z,1010.68
2018-06-13T12:45:03.866Z,1010.61
2018-06-13T12:46:12.517Z,1010.68
2018-06-13T12:47:21.432Z,1010.7
2018-06-13T12:48:30.075Z,1010.73
2018-06-13T12:49:38.740Z,1010.69
2018-06-13T12:50:47.399Z,1010.73
2018-06-13T12:51:56.037Z,1010.78
2018-06-13T12:53:04.678Z,1010.84
2018-06-13T12:54:13.335Z,1010.8
2018-06-13T12:55:21.981Z,1010.83
2018-06-13T12:56:30.901Z,1010.81
2018-06-13T12:57:39.540Z,1010.77
2018-06-13T12:58:48.248Z,1010.79
2018-06-13T12:59:57.208Z,1010.79
2018-06-13T13:01:05.860Z,1010.79
2018-06-13T13:02:14.512Z,1010.81
2018-06-13T13:03:23.156Z,1010.82
2018-06-13T13:04:31.853Z,1010.81
2018-06-13T13:05:40.455Z,1010.85
2018-06-13T13:06:49.119Z,1010.77
2018-06-13T13:07:57.761Z,1010.79
2018-06-13T13:09:06.938Z,1010.8
2018-06-13T13:10:15.653Z,1010.88
2018-06-13T13:11:24.244Z,1010.86
2018-06-13T13:12:33.155Z,1010.83
2018-06-13T13:13:41.807Z,1010.86
2018-06-13T13:14:50.457Z,1010.81
2018-06-13T13:15:59.115Z,1010.84
2018-06-13T13:17:07.762Z,1010.78
2018-06-13T13:18:16.680Z,1010.78
2018-06-13T13:19:25.328Z,1010.83
2018-06-13T13:20:33.973Z,1010.81
2018-06-13T13:21:42.628Z,1010.8
2018-06-13T13:22:51.275Z,1010.76
2018-06-13T13:24:00.200Z,1010.78
2018-06-13T13:25:09.113Z,1010.82
2018-06-13T13:26:17.765Z,1010.82
2018-06-13T13:27:26.418Z,1010.81
2018-06-13T13:28:35.068Z,1010.78
2018-06-13T13:29:43.975Z,1010.8
2018-06-13T13:30:52.629Z,1010.77
2018-06-13T13:32:01.278Z,1010.77
2018-06-13T13:33:09.929Z,1010.81
2018-06-13T13:34:18.575Z,1010.81
2018-06-13T13:35:27.227Z,1010.84
2018-06-13T13:36:35.878Z,1010.85
2018-06-13T13:37:44.530Z,1010.87
2018-06-13T13:38:53.183Z,1010.91
2018-06-13T13:40:01.832Z,1010.84
2018-06-13T13:41:10.484Z,1010.9
2018-06-13T13:42:19.394Z,1010.86
2018-06-13T13:43:28.315Z,1010.86
2018-06-13T13:44:36.959Z,1010.91
2018-06-13T13:45:45.715Z,1010.89
2018-06-13T13:46:54.260Z,1010.89
2018-06-13T13:48:02.918Z,1010.97
2018-06-13T13:49:11.562Z,1010.96
2018-06-13T13:50:20.215Z,1010.93
2018-06-13T13:51:28.865Z,1010.96
2018-06-13T13:52:37.526Z,1010.93
2018-06-13T13:53:46.175Z,1010.92